createdAt,value
2018-11-11T00:00:12.631Z,90.67
2018-11-11T00:02:41.759Z,90.43
2018-11-11T00:05:11.262Z,90.73
2018-11-11T00:07:40.548Z,93.70
2018-11-11T00:10:09.343Z,93.70
2018-11-11T00:12:38.643Z,89.53
2018-11-11T00:15:10.604Z,89.33
2018-11-11T00:17:39.795Z,92.73
2018-11-11T00:20:09.672Z,91.63
2018-11-11T00:22:38.713Z,90.70
2018-11-11T00:25:08.157Z,86.53
2018-11-11T00:27:37.706Z,88.03
2018-11-11T00:30:08.684Z,87.50
2018-11-11T00:32:37.433Z,92.63
2018-11-11T00:35:06.616Z,89.10
2018-11-11T00:37:35.337Z,90.73
2018-11-11T00:40:04.201Z,84.93
2018-11-11T00:42:32.862Z,92.20
2018-11-11T00:45:01.564Z,87.30
2018-11-11T00:47:30.608Z,89.77
2018-11-11T00:49:59.263Z,90.43
2018-11-11T00:52:28.048Z,91.63
2018-11-11T00:54:56.748Z,92.93
2018-11-11T00:57:25.520Z,85.63
2018-11-11T00:59:54.182Z,87.30
2018-11-11T01:02:22.869Z,87.50
2018-11-11T01:04:51.700Z,86.67
2018-11-11T01:07:20.331Z,86.47
2018-11-11T01:09:49.027Z,85.60
2018-11-11T01:12:17.710Z,86.57
2018-11-11T01:14:46.400Z,85.47
2018-11-11T01:17:15.092Z,87.97
2018-11-11T01:19:43.893Z,91.10
2018-11-11T01:22:12.548Z,94.50
2018-11-11T01:24:41.258Z,90.03
2018-11-11T01:27:10.043Z,89.93
2018-11-11T01:29:38.752Z,86.50
2018-11-11T01:32:07.486Z,87.23
2018-11-11T01:34:36.335Z,89.30
2018-11-11T01:37:05.072Z,89.00
2018-11-11T01:39:34.308Z,82.90
2018-11-11T01:42:03.032Z,79.07
2018-11-11T01:44:31.767Z,81.00
2018-11-11T01:47:00.403Z,81.27
2018-11-11T01:49:29.129Z,81.93
2018-11-11T01:51:57.908Z,79.90
2018-11-11T01:54:26.628Z,82.23
2018-11-11T01:56:55.380Z,79.00
2018-11-11T01:59:24.064Z,77.60
2018-11-11T02:01:52.787Z,80.50
2018-11-11T02:04:21.542Z,81.63
2018-11-11T02:06:50.563Z,79.67
2018-11-11T02:09:19.239Z,84.73
2018-11-11T02:11:48.117Z,88.80
2018-11-11T02:14:16.895Z,87.70
2018-11-11T02:16:45.573Z,87.30
2018-11-11T02:19:14.460Z,83.90
2018-11-11T02:21:43.342Z,88.80
2018-11-11T02:24:11.944Z,92.07
2018-11-11T02:26:40.822Z,86.93
2018-11-11T02:29:09.718Z,88.33
2018-11-11T02:31:38.509Z,87.07
2018-11-11T02:34:07.337Z,87.87
2018-11-11T02:36:36.013Z,83.13
2018-11-11T02:39:06.111Z,80.60
2018-11-11T02:41:34.883Z,78.93
2018-11-11T02:44:03.605Z,81.93
2018-11-11T02:46:32.370Z,85.70
2018-11-11T02:49:01.158Z,80.50
2018-11-11T02:51:29.939Z,80.50
2018-11-11T02:53:58.674Z,79.33
2018-11-11T02:56:27.320Z,75.13
2018-11-11T02:58:56.095Z,79.73
2018-11-11T03:01:24.796Z,81.03
2018-11-11T03:03:53.604Z,79.03
2018-11-11T03:06:22.461Z,76.73
2018-11-11T03:08:51.254Z,77.73
2018-11-11T03:11:19.927Z,77.93
2018-11-11T03:13:48.717Z,77.07
2018-11-11T03:16:17.373Z,76.93
2018-11-11T03:18:46.060Z,71.50
2018-11-11T03:21:14.871Z,76.60
2018-11-11T03:23:43.688Z,71.87
2018-11-11T03:26:12.407Z,73.67
2018-11-11T03:28:41.013Z,74.97
2018-11-11T03:31:09.778Z,72.43
2018-11-11T03:33:39.012Z,68.23
2018-11-11T03:36:07.806Z,73.83
2018-11-11T03:38:36.474Z,70.47
2018-11-11T03:41:05.376Z,69.97
2018-11-11T03:43:34.247Z,72.33
2018-11-11T03:46:02.961Z,72.57
2018-11-11T03:48:31.758Z,68.27
2018-11-11T03:51:00.545Z,69.10
2018-11-11T03:53:29.314Z,67.53
2018-11-11T03:55:57.956Z,69.07
2018-11-11T03:58:26.727Z,61.83
2018-11-11T04:00:55.385Z,67.30
2018-11-11T04:03:24.064Z,64.20
2018-11-11T04:05:52.948Z,65.07
2018-11-11T04:08:21.748Z,67.17
2018-11-11T04:10:50.391Z,63.87
2018-11-11T04:13:19.207Z,67.10
2018-11-11T04:15:47.882Z,60.37
2018-11-11T04:18:16.569Z,63.20
2018-11-11T04:20:45.284Z,60.97
2018-11-11T04:23:13.921Z,63.53
2018-11-11T04:25:42.728Z,59.73
2018-11-11T04:28:11.411Z,59.80
2018-11-11T04:30:40.156Z,58.80
2018-11-11T04:33:08.768Z,64.23
2018-11-11T04:35:37.588Z,58.07
2018-11-11T04:38:06.303Z,66.23
2018-11-11T04:40:34.908Z,63.27
2018-11-11T04:43:03.546Z,57.83
2018-11-11T04:45:32.274Z,61.20
2018-11-11T04:48:00.881Z,65.20
2018-11-11T04:50:29.659Z,60.53
2018-11-11T04:52:58.344Z,59.63
2018-11-11T04:55:27.188Z,61.67
2018-11-11T04:57:55.843Z,60.67
2018-11-11T05:00:24.626Z,65.07
2018-11-11T05:02:53.305Z,61.37
2018-11-11T05:05:22.193Z,61.20
2018-11-11T05:07:50.872Z,59.17
2018-11-11T05:10:19.625Z,57.90
2018-11-11T05:12:48.346Z,58.30
2018-11-11T05:15:17.104Z,57.07
2018-11-11T05:17:45.844Z,56.80
2018-11-11T05:20:14.519Z,55.13
2018-11-11T05:22:43.765Z,53.90
2018-11-11T05:25:14.212Z,53.13
2018-11-11T05:27:43.558Z,47.27
2018-11-11T05:30:13.248Z,53.87
2018-11-11T05:32:41.920Z,55.10
2018-11-11T05:35:11.441Z,57.70
2018-11-11T05:37:40.841Z,54.03
2018-11-11T05:40:10.656Z,58.73
2018-11-11T05:42:39.900Z,56.60
2018-11-11T05:45:10.282Z,55.77
2018-11-11T05:47:39.588Z,53.23
2018-11-11T05:50:10.116Z,54.43
2018-11-11T05:52:39.142Z,53.23
2018-11-11T05:55:08.467Z,54.70
2018-11-11T05:57:37.460Z,57.10
2018-11-11T06:00:08.275Z,54.73
2018-11-11T06:02:37.047Z,60.03
2018-11-11T06:05:07.704Z,54.33
2018-11-11T06:07:36.372Z,52.67
2018-11-11T06:10:06.502Z,50.53
2018-11-11T06:12:35.228Z,52.47
2018-11-11T06:15:04.205Z,51.40
2018-11-11T06:17:33.251Z,55.23
2018-11-11T06:20:01.888Z,54.17
2018-11-11T06:22:30.792Z,53.43
2018-11-11T06:24:59.475Z,54.50
2018-11-11T06:27:28.173Z,50.60
2018-11-11T06:29:56.958Z,50.80
2018-11-11T06:32:25.620Z,53.60
2018-11-11T06:34:54.296Z,51.07
2018-11-11T06:37:23.129Z,50.50
2018-11-11T06:39:51.779Z,50.50
2018-11-11T06:42:20.532Z,51.57
2018-11-11T06:44:49.367Z,52.00
2018-11-11T06:47:18.035Z,51.07
2018-11-11T06:49:46.711Z,50.53
2018-11-11T06:52:15.728Z,52.03
2018-11-11T06:54:44.518Z,52.37
2018-11-11T06:57:13.169Z,53.13
2018-11-11T06:59:42.560Z,52.10
2018-11-11T07:02:11.268Z,51.30
2018-11-11T07:04:39.944Z,52.33
2018-11-11T07:07:08.765Z,51.77
2018-11-11T07:09:37.417Z,52.30
2018-11-11T07:12:06.336Z,52.53
2018-11-11T07:14:35.135Z,49.37
2018-11-11T07:17:03.805Z,53.10
2018-11-11T07:19:32.520Z,49.40
2018-11-11T07:22:01.477Z,54.33
2018-11-11T07:24:30.188Z,49.17
2018-11-11T07:26:58.821Z,56.90
2018-11-11T07:29:27.842Z,61.07
2018-11-11T07:31:56.732Z,51.07
2018-11-11T07:34:25.395Z,59.90
2018-11-11T07:36:54.079Z,55.60
2018-11-11T07:39:22.896Z,58.63
2018-11-11T07:41:51.591Z,54.93
2018-11-11T07:44:20.287Z,53.67
2018-11-11T07:46:49.048Z,58.47
2018-11-11T07:49:17.744Z,54.30
2018-11-11T07:51:46.521Z,55.70
2018-11-11T07:54:15.405Z,56.57
2018-11-11T07:56:44.309Z,54.47
2018-11-11T07:59:13.071Z,61.37
2018-11-11T08:01:41.850Z,59.17
2018-11-11T08:04:10.880Z,56.30
2018-11-11T08:06:39.824Z,46.03
2018-11-11T08:09:08.443Z,54.50
2018-11-11T08:11:48.802Z,54.20
2018-11-11T08:14:17.567Z,51.33
2018-11-11T08:16:46.275Z,52.93
2018-11-11T08:19:16.084Z,52.07
2018-11-11T08:21:44.743Z,51.83
2018-11-11T08:24:13.448Z,50.20
2018-11-11T08:26:42.241Z,50.83
2018-11-11T08:29:11.028Z,53.53
2018-11-11T08:31:40.429Z,46.90
2018-11-11T08:34:09.308Z,53.33
2018-11-11T08:36:38.132Z,46.17
2018-11-11T08:39:10.879Z,47.37
2018-11-11T08:41:41.393Z,52.17
2018-11-11T08:44:11.322Z,54.07
2018-11-11T08:46:41.676Z,57.60
2018-11-11T08:49:11.463Z,56.40
2018-11-11T08:51:40.161Z,52.60
2018-11-11T08:54:09.176Z,52.80
2018-11-11T08:56:38.244Z,49.70
2018-11-11T08:59:07.309Z,59.57
2018-11-11T09:01:35.989Z,51.60
2018-11-11T09:04:05.449Z,54.07
2018-11-11T09:06:34.083Z,52.93
2018-11-11T09:09:02.872Z,53.03
2018-11-11T09:11:31.753Z,55.50
2018-11-11T09:14:00.588Z,49.17
2018-11-11T09:16:29.260Z,49.63
2018-11-11T09:18:58.026Z,55.93
2018-11-11T09:21:26.870Z,50.90
2018-11-11T09:23:55.700Z,49.57
2018-11-11T09:26:24.425Z,53.07
2018-11-11T09:28:53.127Z,50.03
2018-11-11T09:31:21.761Z,51.07
2018-11-11T09:33:50.560Z,49.50
2018-11-11T09:36:19.232Z,50.97
2018-11-11T09:38:48.079Z,52.77
2018-11-11T09:41:16.706Z,53.40
2018-11-11T09:43:45.389Z,50.63
2018-11-11T09:46:14.295Z,50.87
2018-11-11T09:48:43.012Z,47.67
2018-11-11T09:51:11.822Z,47.77
2018-11-11T09:53:40.453Z,48.40
2018-11-11T09:56:09.148Z,52.50
2018-11-11T09:58:37.957Z,47.77
2018-11-11T10:01:06.586Z,50.07
2018-11-11T10:03:39.431Z,49.83
2018-11-11T10:06:25.633Z,47.10
2018-11-11T10:21:58.656Z,46.30
2018-11-11T10:24:32.645Z,47.07
2018-11-11T10:27:06.688Z,48.77
2018-11-11T10:29:51.285Z,46.23
2018-11-11T10:32:39.707Z,47.83
2018-11-11T10:35:18.375Z,46.33
2018-11-11T10:37:52.528Z,45.77
2018-11-11T10:40:28.417Z,46.50
2018-11-11T10:44:03.681Z,45.07
2018-11-11T10:46:37.578Z,47.20
2018-11-11T10:49:07.968Z,42.90
2018-11-11T10:51:37.168Z,45.37
2018-11-11T10:54:06.450Z,46.47
2018-11-11T10:56:35.149Z,45.93
2018-11-11T10:59:04.118Z,46.50
2018-11-11T11:01:38.024Z,47.13
2018-11-11T11:04:07.950Z,44.40
2018-11-11T11:07:13.605Z,46.23
2018-11-11T11:09:42.369Z,44.67
2018-11-11T11:12:11.113Z,43.43
2018-11-11T11:14:40.065Z,45.23
2018-11-11T11:17:08.775Z,48.37
2018-11-11T11:19:37.640Z,46.47
2018-11-11T11:22:07.038Z,45.53
2018-11-11T11:24:40.214Z,48.03
2018-11-11T11:27:09.128Z,47.03
2018-11-11T11:29:38.125Z,44.23
2018-11-11T11:32:06.880Z,44.60
2018-11-11T11:34:35.802Z,48.37
2018-11-11T11:37:04.505Z,50.00
2018-11-11T11:39:34.392Z,47.63
2018-11-11T11:42:03.140Z,46.80
2018-11-11T11:44:32.060Z,48.23
2018-11-11T11:47:00.732Z,46.27
2018-11-11T11:49:29.468Z,48.27
2018-11-11T11:51:58.281Z,48.10
2018-11-11T11:54:27.011Z,48.20
2018-11-11T11:56:55.989Z,48.83
2018-11-11T11:59:24.716Z,46.63
2018-11-11T12:01:53.547Z,47.23
2018-11-11T12:04:22.376Z,50.43
2018-11-11T12:06:51.147Z,48.23
2018-11-11T12:09:19.875Z,49.47
2018-11-11T12:11:48.619Z,48.27
2018-11-11T12:14:17.490Z,49.83
2018-11-11T12:16:46.561Z,49.73
2018-11-11T12:19:15.675Z,49.97
2018-11-11T12:21:44.505Z,50.47
2018-11-11T12:24:13.377Z,48.57
2018-11-11T12:26:42.090Z,47.60
2018-11-11T12:29:10.850Z,47.57
2018-11-11T12:31:39.747Z,48.57
2018-11-11T12:34:08.476Z,50.00
2018-11-11T12:36:37.323Z,50.60
2018-11-11T12:39:09.333Z,48.80
2018-11-11T12:41:38.273Z,50.20
2018-11-11T12:44:07.474Z,47.23
2018-11-11T12:46:36.282Z,50.93
2018-11-11T12:49:05.054Z,49.87
2018-11-11T12:51:33.762Z,50.73
2018-11-11T12:54:02.553Z,47.53
2018-11-11T12:56:31.172Z,47.50
2018-11-11T12:58:59.861Z,49.33
2018-11-11T13:01:28.797Z,51.23
2018-11-11T13:03:57.556Z,34.30
2018-11-11T13:06:26.224Z,44.07
2018-11-11T13:08:54.974Z,46.33
2018-11-11T13:11:23.670Z,45.23
2018-11-11T13:13:52.461Z,45.80
2018-11-11T13:16:21.046Z,40.00
2018-11-11T13:18:51.976Z,49.83
2018-11-11T13:21:20.604Z,43.53
2018-11-11T13:23:49.294Z,45.37
2018-11-11T13:26:18.035Z,43.60
2018-11-11T13:28:46.836Z,44.97
2018-11-11T13:31:15.973Z,45.13
2018-11-11T13:33:44.682Z,46.43
2018-11-11T13:36:13.445Z,46.93
2018-11-11T13:38:42.334Z,49.93
2018-11-11T13:41:11.083Z,50.23
2018-11-11T13:43:39.897Z,50.57
2018-11-11T13:46:08.612Z,46.73
2018-11-11T13:48:37.360Z,42.80
2018-11-11T13:51:06.270Z,47.00
2018-11-11T13:53:35.128Z,47.23
2018-11-11T13:56:04.041Z,43.00
2018-11-11T13:58:32.828Z,49.00
2018-11-11T14:01:01.548Z,46.23
2018-11-11T14:03:30.402Z,43.67
2018-11-11T14:05:59.095Z,48.17
2018-11-11T14:08:27.824Z,51.87
2018-11-11T14:10:56.603Z,51.47
2018-11-11T14:13:25.549Z,52.73
2018-11-11T14:15:54.517Z,52.67
2018-11-11T14:18:23.229Z,43.90
2018-11-11T14:20:52.034Z,36.80
2018-11-11T14:23:20.864Z,43.17
2018-11-11T14:25:49.556Z,46.90
2018-11-11T14:28:18.502Z,50.87
2018-11-11T14:30:47.282Z,50.43
2018-11-11T14:33:16.039Z,51.03
2018-11-11T14:35:44.810Z,50.23
2018-11-11T14:38:13.873Z,49.50
2018-11-11T14:40:42.560Z,46.53
2018-11-11T14:43:11.625Z,49.70
2018-11-11T14:45:40.325Z,50.73
2018-11-11T14:48:09.194Z,50.83
2018-11-11T14:50:37.911Z,52.60
2018-11-11T14:53:06.588Z,52.23
2018-11-11T14:55:35.560Z,54.30
2018-11-11T14:58:04.330Z,54.40
2018-11-11T15:00:34.358Z,50.23
2018-11-11T15:03:10.220Z,53.37
2018-11-11T15:05:39.096Z,53.63
2018-11-11T15:08:08.295Z,53.73
2018-11-11T15:10:37.004Z,55.40
2018-11-11T15:13:06.519Z,54.13
2018-11-11T15:15:35.325Z,52.97
2018-11-11T15:18:04.355Z,55.23
2018-11-11T15:20:33.642Z,50.57
2018-11-11T15:23:02.452Z,53.67
2018-11-11T15:25:31.763Z,50.70
2018-11-11T15:28:00.351Z,52.77
2018-11-11T15:30:32.634Z,54.00
2018-11-11T15:33:02.001Z,54.60
2018-11-11T15:35:30.773Z,49.67
2018-11-11T15:37:59.679Z,55.43
2018-11-11T15:40:29.825Z,48.97
2018-11-11T15:42:58.720Z,56.23
2018-11-11T15:45:30.664Z,54.63
2018-11-11T15:47:59.719Z,55.33
2018-11-11T15:50:30.077Z,54.87
2018-11-11T15:53:01.234Z,53.70
2018-11-11T15:55:31.712Z,54.97
2018-11-11T15:58:00.641Z,54.83
2018-11-11T16:00:30.667Z,58.67
2018-11-11T16:02:59.432Z,55.70
2018-11-11T16:05:28.200Z,55.47
2018-11-11T16:07:58.063Z,53.97
2018-11-11T16:10:27.871Z,55.90
2018-11-11T16:12:57.387Z,55.47
2018-11-11T16:15:35.904Z,56.27
2018-11-11T16:18:06.313Z,65.57
2018-11-11T16:20:34.989Z,58.10
2018-11-11T16:23:04.996Z,61.10
2018-11-11T16:25:33.940Z,62.07
2018-11-11T16:28:02.807Z,59.77
2018-11-11T16:30:34.122Z,63.13
2018-11-11T16:33:03.069Z,67.20
2018-11-11T16:35:32.539Z,66.10
2018-11-11T16:38:02.148Z,62.97
2018-11-11T16:40:32.730Z,68.43
2018-11-11T16:43:01.948Z,67.77
2018-11-11T16:45:31.989Z,66.23
2018-11-11T16:48:01.014Z,65.77
2018-11-11T16:50:32.276Z,66.33
2018-11-11T16:53:02.439Z,64.83
2018-11-11T16:55:32.134Z,66.80
2018-11-11T16:58:01.349Z,65.87
2018-11-11T17:00:31.823Z,62.40
2018-11-11T17:03:02.059Z,62.00
2018-11-11T17:05:33.231Z,61.77
2018-11-11T17:08:02.288Z,62.60
2018-11-11T17:10:32.575Z,61.13
2018-11-11T17:13:04.544Z,63.63
2018-11-11T17:15:33.904Z,59.17
2018-11-11T17:18:02.917Z,58.20
2018-11-11T17:20:32.192Z,60.20
2018-11-11T17:23:03.553Z,61.30
2018-11-11T17:25:32.464Z,59.30
2018-11-11T17:28:01.385Z,62.77
2018-11-11T17:30:31.552Z,62.77
2018-11-11T17:33:01.282Z,63.80
2018-11-11T17:35:30.140Z,64.13
2018-11-11T17:37:59.162Z,65.57
2018-11-11T17:40:29.973Z,63.53
2018-11-11T17:42:59.558Z,63.60
2018-11-11T17:45:28.774Z,63.97
2018-11-11T17:47:58.178Z,61.50
2018-11-11T17:50:28.572Z,63.83
2018-11-11T17:52:57.913Z,61.40
2018-11-11T17:55:27.767Z,62.17
2018-11-11T17:57:56.360Z,64.77
2018-11-11T18:00:26.490Z,62.40
2018-11-11T18:04:20.202Z,63.60
2018-11-11T18:06:49.131Z,63.33
2018-11-11T18:09:18.203Z,62.23
2018-11-11T18:11:47.075Z,64.83
2018-11-11T18:14:16.378Z,65.43
2018-11-11T18:16:46.309Z,67.27
2018-11-11T18:19:15.302Z,65.63
2018-11-11T18:21:45.490Z,65.70
2018-11-11T18:24:14.985Z,70.07
2018-11-11T18:26:44.440Z,67.87
2018-11-11T18:29:14.380Z,68.50
2018-11-11T18:31:43.779Z,66.23
2018-11-11T18:34:13.154Z,67.57
2018-11-11T18:36:42.398Z,65.80
2018-11-11T18:39:12.862Z,68.80
2018-11-11T18:41:42.707Z,66.63
2018-11-11T18:44:12.160Z,69.83
2018-11-11T18:48:05.695Z,68.00
2018-11-11T18:50:34.962Z,69.10
2018-11-11T18:53:04.499Z,67.50
2018-11-11T18:55:33.763Z,68.30
2018-11-11T18:58:03.691Z,66.47
2018-11-11T19:01:57.388Z,70.13
2018-11-11T19:04:26.605Z,67.97
2018-11-11T19:06:55.814Z,68.70
2018-11-11T19:09:25.188Z,66.67
2018-11-11T19:11:54.324Z,70.23
2018-11-11T19:14:23.560Z,72.60
2018-11-11T19:16:52.600Z,70.70
2018-11-11T19:19:21.688Z,72.53
2018-11-11T19:21:50.758Z,69.00
2018-11-11T19:24:19.983Z,73.37
2018-11-11T19:26:49.000Z,71.37
2018-11-11T19:29:18.531Z,69.03
2018-11-11T19:31:47.748Z,79.07
2018-11-11T19:34:17.187Z,70.57
2018-11-11T19:36:46.267Z,72.53
2018-11-11T19:39:15.079Z,74.23
2018-11-11T19:41:44.096Z,71.57
2018-11-11T19:44:13.258Z,75.23
2018-11-11T19:46:42.352Z,69.00
2018-11-11T19:49:11.055Z,70.43
2018-11-11T19:51:40.017Z,71.87
2018-11-11T19:54:09.458Z,70.73
2018-11-11T19:56:38.427Z,76.07
2018-11-11T19:59:07.685Z,77.37
2018-11-11T20:01:36.730Z,79.03
2018-11-11T20:04:06.510Z,79.87
2018-11-11T20:06:35.573Z,78.90
2018-11-11T20:09:06.724Z,81.13
2018-11-11T20:11:35.604Z,78.33
2018-11-11T20:15:31.096Z,80.67
2018-11-11T20:18:00.308Z,79.93
2018-11-11T20:20:31.877Z,77.70
2018-11-11T20:23:00.765Z,82.67
2018-11-11T20:25:30.757Z,81.13
2018-11-11T20:28:00.569Z,80.43
2018-11-11T20:30:31.105Z,78.17
2018-11-11T20:33:00.210Z,81.33
2018-11-11T20:35:30.287Z,81.33
2018-11-11T20:37:59.165Z,78.33
2018-11-11T20:40:28.678Z,82.17
2018-11-11T20:42:58.102Z,78.63
2018-11-11T20:45:34.572Z,80.07
2018-11-11T20:48:04.368Z,82.80
2018-11-11T20:50:33.952Z,81.63
2018-11-11T20:53:04.244Z,81.33
2018-11-11T20:55:32.968Z,82.80
2018-11-11T20:58:01.969Z,79.30
2018-11-11T21:00:33.053Z,83.20
2018-11-11T21:03:02.019Z,79.50
2018-11-11T21:05:31.190Z,84.87
2018-11-11T21:07:59.881Z,84.87
2018-11-11T21:10:29.285Z,89.50
2018-11-11T21:12:58.515Z,90.93
2018-11-11T21:15:28.533Z,83.50
2018-11-11T21:17:57.274Z,90.30
2018-11-11T21:20:27.583Z,94.07
2018-11-11T21:22:56.378Z,94.73
2018-11-11T21:25:25.538Z,85.53
2018-11-11T21:27:54.261Z,94.67
2018-11-11T21:30:24.633Z,95.87
2018-11-11T21:32:53.317Z,92.23
2018-11-11T21:35:22.057Z,100.30
2018-11-11T21:37:50.999Z,95.73
2018-11-11T21:40:21.172Z,94.90
2018-11-11T21:42:50.487Z,105.20
2018-11-11T21:45:20.570Z,100.67
2018-11-11T21:47:49.387Z,112.83
2018-11-11T21:50:19.503Z,109.93
2018-11-11T21:53:00.024Z,102.83
2018-11-11T21:55:28.635Z,101.50
2018-11-11T21:57:57.429Z,103.13
2018-11-11T22:00:26.124Z,97.60
2018-11-11T22:02:54.829Z,99.97
2018-11-11T22:05:23.618Z,97.83
2018-11-11T22:07:52.259Z,100.20
2018-11-11T22:10:21.008Z,101.17
2018-11-11T22:12:49.691Z,103.47
2018-11-11T22:15:18.433Z,104.80
2018-11-11T22:17:47.223Z,100.50
2018-11-11T22:20:16.003Z,103.70
2018-11-11T22:22:44.795Z,101.60
2018-11-11T22:25:13.455Z,98.93
2018-11-11T22:27:42.241Z,96.80
2018-11-11T22:30:12.172Z,85.70
2018-11-11T22:32:40.943Z,92.83
2018-11-11T22:35:10.992Z,90.87
2018-11-11T22:37:39.868Z,93.23
2018-11-11T22:40:10.867Z,96.70
2018-11-11T22:42:39.478Z,98.13
2018-11-11T22:46:39.002Z,98.30
2018-11-11T22:49:08.159Z,102.73
2018-11-11T22:51:37.121Z,127.50
2018-11-11T22:54:06.361Z,113.13
2018-11-11T22:56:35.217Z,105.60
2018-11-11T22:59:03.883Z,106.17
2018-11-11T23:01:32.548Z,96.77
2018-11-11T23:04:01.346Z,103.57
2018-11-11T23:06:30.135Z,93.50
2018-11-11T23:08:58.803Z,96.40
2018-11-11T23:11:27.554Z,94.30
2018-11-11T23:13:56.276Z,93.10
2018-11-11T23:16:24.959Z,92.50
2018-11-11T23:18:53.744Z,93.20
2018-11-11T23:21:22.421Z,89.87
2018-11-11T23:23:51.140Z,95.57
2018-11-11T23:26:19.821Z,93.47
2018-11-11T23:28:48.633Z,94.03
2018-11-11T23:31:17.283Z,95.83
2018-11-11T23:33:45.955Z,102.87
2018-11-11T23:36:14.741Z,102.60
2018-11-11T23:38:43.454Z,114.27
2018-11-11T23:41:12.335Z,118.83
2018-11-11T23:43:41.003Z,108.07
2018-11-11T23:46:09.700Z,113.37
2018-11-11T23:48:38.626Z,105.43
2018-11-11T23:51:07.361Z,106.63
2018-11-11T23:53:36.060Z,105.40
2018-11-11T23:56:05.265Z,103.23
2018-11-11T23:58:33.921Z,108.03
